createdAt,value
2023-06-29T00:00:20.217Z,176.55
2023-06-29T00:01:20.309Z,175.01
2023-06-29T00:02:20.343Z,175.53
2023-06-29T00:03:20.555Z,173.95
2023-06-29T00:04:20.457Z,173.79
2023-06-29T00:05:20.495Z,172.17
2023-06-29T00:06:20.571Z,173.96
2023-06-29T00:07:20.668Z,171.88
2023-06-29T00:08:20.675Z,172.74
2023-06-29T00:09:20.730Z,171.13
2023-06-29T00:10:20.795Z,171.84
2023-06-29T00:11:20.830Z,170.46
2023-06-29T00:12:20.897Z,169.03
2023-06-29T00:13:20.951Z,167.40
2023-06-29T00:14:20.955Z,166.88
2023-06-29T00:15:21.008Z,166.06
2023-06-29T00:16:21.114Z,165.72
2023-06-29T00:17:21.156Z,164.31
2023-06-29T00:18:21.135Z,165.81
2023-06-29T00:19:21.153Z,166.07
2023-06-29T00:20:21.187Z,164.93
2023-06-29T00:21:23.568Z,165.45
2023-06-29T00:22:21.243Z,164.04
2023-06-29T00:23:21.225Z,164.56
2023-06-29T00:24:21.201Z,165.30
2023-06-29T00:25:21.214Z,160.61
2023-06-29T00:26:21.189Z,160.21
2023-06-29T00:27:21.191Z,159.02
2023-06-29T00:28:21.191Z,159.79
2023-06-29T00:29:21.184Z,158.95
2023-06-29T00:30:21.173Z,159.05
2023-06-29T00:31:21.224Z,159.23
2023-06-29T00:32:21.221Z,156.57
2023-06-29T00:33:21.156Z,155.86
2023-06-29T00:34:21.147Z,155.21
2023-06-29T00:35:21.124Z,154.13
2023-06-29T00:36:21.126Z,155.29
2023-06-29T00:37:21.133Z,154.44
2023-06-29T00:38:21.117Z,154.40
2023-06-29T00:39:21.099Z,153.24
2023-06-29T00:40:21.102Z,153.54
2023-06-29T00:41:21.110Z,151.90
2023-06-29T00:42:21.107Z,150.64
2023-06-29T00:43:21.090Z,152.99
2023-06-29T00:44:21.062Z,150.75
2023-06-29T00:45:21.080Z,151.23
2023-06-29T00:46:21.103Z,150.68
2023-06-29T00:47:21.041Z,147.95
2023-06-29T00:48:21.050Z,150.21
2023-06-29T00:49:21.044Z,147.04
2023-06-29T00:50:21.030Z,148.95
2023-06-29T00:51:21.030Z,147.71
2023-06-29T00:52:21.025Z,148.16
2023-06-29T00:53:21.030Z,146.24
2023-06-29T00:54:21.017Z,146.43
2023-06-29T00:55:21.020Z,146.61
2023-06-29T00:56:20.983Z,148.13
2023-06-29T00:57:20.990Z,147.70
2023-06-29T00:58:20.970Z,145.82
2023-06-29T00:59:20.974Z,146.80
2023-06-29T01:00:20.990Z,144.83
2023-06-29T01:01:21.013Z,146.48
2023-06-29T01:02:20.955Z,144.82
2023-06-29T01:03:21.035Z,143.70
2023-06-29T01:04:20.940Z,142.33
2023-06-29T01:05:20.913Z,143.34
2023-06-29T01:06:20.911Z,143.13
2023-06-29T01:07:20.930Z,141.94
2023-06-29T01:08:20.912Z,141.46
2023-06-29T01:09:20.899Z,143.16
2023-06-29T01:10:20.882Z,142.86
2023-06-29T01:11:20.890Z,142.84
2023-06-29T01:12:20.887Z,143.13
2023-06-29T01:13:20.868Z,141.34
2023-06-29T01:14:20.878Z,143.10
2023-06-29T01:15:20.860Z,141.20
2023-06-29T01:16:20.895Z,143.04
2023-06-29T01:17:20.854Z,142.61
2023-06-29T01:18:20.866Z,142.95
2023-06-29T01:19:20.837Z,143.80
2023-06-29T01:20:20.862Z,140.37
2023-06-29T01:21:20.832Z,141.71
2023-06-29T01:22:20.854Z,139.49
2023-06-29T01:23:20.809Z,138.99
2023-06-29T01:24:20.801Z,138.89
2023-06-29T01:25:20.783Z,136.64
2023-06-29T01:26:20.803Z,139.44
2023-06-29T01:27:20.777Z,139.13
2023-06-29T01:28:20.763Z,138.13
2023-06-29T01:29:20.764Z,138.17
2023-06-29T01:30:20.761Z,138.70
2023-06-29T01:31:20.785Z,140.26
2023-06-29T01:32:20.763Z,136.78
2023-06-29T01:33:20.750Z,138.34
2023-06-29T01:34:20.713Z,134.76
2023-06-29T01:35:20.724Z,138.15
2023-06-29T01:36:20.728Z,137.43
2023-06-29T01:37:20.699Z,136.70
2023-06-29T01:38:20.720Z,135.29
2023-06-29T01:39:20.693Z,135.93
2023-06-29T01:40:20.711Z,135.52
2023-06-29T01:41:20.700Z,133.39
2023-06-29T01:42:20.662Z,135.17
2023-06-29T01:43:20.669Z,134.15
2023-06-29T01:44:20.680Z,133.42
2023-06-29T01:45:20.670Z,132.75
2023-06-29T01:46:20.661Z,134.62
2023-06-29T01:47:20.634Z,134.47
2023-06-29T01:48:20.650Z,136.61
2023-06-29T01:49:20.629Z,135.38
2023-06-29T01:50:20.614Z,134.52
2023-06-29T01:51:20.612Z,133.24
2023-06-29T01:52:20.617Z,134.55
2023-06-29T01:53:20.593Z,133.85
2023-06-29T01:54:20.614Z,130.04
2023-06-29T01:55:20.588Z,131.74
2023-06-29T01:56:20.563Z,133.92
2023-06-29T01:57:20.569Z,131.68
2023-06-29T01:58:20.554Z,134.20
2023-06-29T01:59:20.557Z,134.07
2023-06-29T02:00:20.593Z,134.10
2023-06-29T02:01:20.599Z,132.99
2023-06-29T02:02:20.626Z,132.73
2023-06-29T02:03:20.568Z,134.82
2023-06-29T02:04:20.529Z,136.21
2023-06-29T02:05:20.509Z,136.65
2023-06-29T02:06:20.491Z,136.39
2023-06-29T02:07:20.548Z,134.17
2023-06-29T02:08:20.501Z,135.64
2023-06-29T02:09:20.490Z,136.90
2023-06-29T02:10:20.484Z,137.56
2023-06-29T02:11:20.553Z,137.59
2023-06-29T02:12:20.467Z,138.92
2023-06-29T02:13:20.461Z,138.80
2023-06-29T02:14:20.435Z,139.83
2023-06-29T02:15:20.441Z,137.83
2023-06-29T02:16:20.535Z,137.68
2023-06-29T02:17:20.434Z,138.93
2023-06-29T02:18:20.452Z,138.91
2023-06-29T02:19:20.425Z,137.64
2023-06-29T02:20:20.395Z,137.27
2023-06-29T02:21:20.397Z,138.62
2023-06-29T02:22:20.403Z,137.90
2023-06-29T02:23:20.408Z,137.95
2023-06-29T02:24:20.387Z,138.03
2023-06-29T02:25:20.370Z,141.20
2023-06-29T02:26:20.368Z,139.88
2023-06-29T02:27:20.376Z,141.83
2023-06-29T02:28:20.376Z,141.42
2023-06-29T02:29:20.362Z,140.85
2023-06-29T02:30:20.381Z,140.74
2023-06-29T02:31:20.363Z,140.11
2023-06-29T02:32:20.345Z,139.39
2023-06-29T02:33:20.371Z,139.22
2023-06-29T02:34:20.356Z,139.20
2023-06-29T02:35:20.372Z,140.07
2023-06-29T02:36:20.337Z,139.43
2023-06-29T02:37:20.345Z,139.77
2023-06-29T02:38:20.341Z,138.28
2023-06-29T02:39:20.342Z,138.02
2023-06-29T02:40:20.341Z,136.96
2023-06-29T02:41:20.330Z,136.24
2023-06-29T02:42:20.357Z,136.21
2023-06-29T02:43:20.344Z,135.09
2023-06-29T02:44:20.326Z,137.53
2023-06-29T02:45:20.338Z,137.83
2023-06-29T02:46:20.410Z,138.33
2023-06-29T02:47:20.349Z,138.23
2023-06-29T02:48:20.338Z,137.51
2023-06-29T02:49:20.329Z,137.55
2023-06-29T02:50:20.308Z,138.50
2023-06-29T02:51:20.313Z,138.21
2023-06-29T02:52:20.322Z,140.45
2023-06-29T02:53:20.327Z,139.54
2023-06-29T02:54:20.315Z,138.64
2023-06-29T02:55:20.324Z,139.99
2023-06-29T02:56:20.311Z,140.67
2023-06-29T02:57:20.328Z,142.66
2023-06-29T02:58:20.326Z,140.24
2023-06-29T02:59:20.342Z,139.70
2023-06-29T03:00:20.315Z,139.58
2023-06-29T03:01:20.357Z,136.63
2023-06-29T03:02:20.328Z,140.14
2023-06-29T03:03:20.419Z,137.17
2023-06-29T03:04:20.324Z,138.18
2023-06-29T03:05:20.326Z,138.76
2023-06-29T03:06:20.326Z,136.77
2023-06-29T03:07:20.346Z,138.50
2023-06-29T03:08:20.338Z,138.85
2023-06-29T03:09:20.378Z,138.61
2023-06-29T03:10:20.370Z,138.26
2023-06-29T03:11:20.321Z,136.36
2023-06-29T03:12:20.332Z,135.34
2023-06-29T03:13:20.337Z,137.74
2023-06-29T03:14:20.347Z,138.57
2023-06-29T03:15:20.356Z,139.53
2023-06-29T03:16:20.397Z,139.14
2023-06-29T03:17:20.382Z,139.59
2023-06-29T03:18:20.375Z,140.03
2023-06-29T03:19:20.373Z,138.80
2023-06-29T03:20:20.389Z,138.61
2023-06-29T03:21:20.398Z,138.97
2023-06-29T03:22:20.392Z,137.45
2023-06-29T03:23:20.405Z,142.09
2023-06-29T03:24:20.393Z,138.66
2023-06-29T03:25:20.419Z,137.41
2023-06-29T03:26:20.413Z,137.54
2023-06-29T03:27:20.452Z,139.15
2023-06-29T03:28:20.414Z,138.18
2023-06-29T03:29:20.425Z,137.32
2023-06-29T03:30:20.415Z,137.60
2023-06-29T03:31:20.460Z,138.39
2023-06-29T03:32:20.443Z,138.59
2023-06-29T03:33:20.454Z,134.70
2023-06-29T03:34:20.433Z,137.76
2023-06-29T03:35:20.414Z,135.68
2023-06-29T03:36:20.422Z,135.63
2023-06-29T03:37:20.440Z,135.59
2023-06-29T03:38:20.445Z,132.71
2023-06-29T03:39:20.450Z,132.31
2023-06-29T03:40:20.450Z,132.89
2023-06-29T03:41:20.460Z,130.48
2023-06-29T03:42:20.445Z,133.25
2023-06-29T03:43:20.453Z,135.94
2023-06-29T03:44:20.472Z,136.26
2023-06-29T03:45:20.448Z,137.41
2023-06-29T03:46:20.461Z,139.07
2023-06-29T03:47:20.518Z,140.15
2023-06-29T03:48:20.605Z,139.58
2023-06-29T03:49:20.469Z,142.29
2023-06-29T03:50:20.487Z,141.57
2023-06-29T03:51:20.474Z,139.44
2023-06-29T03:52:20.460Z,143.56
2023-06-29T03:53:20.464Z,144.45
2023-06-29T03:54:20.475Z,146.04
2023-06-29T03:55:20.467Z,146.27
2023-06-29T03:56:20.460Z,148.09
2023-06-29T03:57:20.449Z,148.84
2023-06-29T03:58:20.472Z,149.81
2023-06-29T03:59:20.468Z,149.80
2023-06-29T04:00:20.477Z,150.62
2023-06-29T04:01:20.526Z,151.54
2023-06-29T04:02:20.552Z,151.25
2023-06-29T04:03:20.514Z,151.00
2023-06-29T04:04:20.459Z,151.46
2023-06-29T04:05:20.469Z,151.75
2023-06-29T04:06:20.455Z,149.45
2023-06-29T04:07:20.545Z,149.93
2023-06-29T04:08:20.460Z,151.03
2023-06-29T04:09:20.469Z,149.82
2023-06-29T04:10:20.455Z,150.13
2023-06-29T04:11:20.487Z,148.88
2023-06-29T04:12:20.471Z,147.73
2023-06-29T04:13:20.464Z,148.75
2023-06-29T04:14:20.446Z,147.98
2023-06-29T04:15:20.466Z,146.05
2023-06-29T04:16:20.489Z,145.98
2023-06-29T04:17:20.474Z,145.14
2023-06-29T04:18:20.474Z,145.39
2023-06-29T04:19:20.456Z,147.33
2023-06-29T04:20:20.471Z,147.58
2023-06-29T04:21:20.464Z,147.38
2023-06-29T04:22:20.451Z,147.61
2023-06-29T04:23:20.444Z,146.20
2023-06-29T04:24:20.458Z,146.74
2023-06-29T04:25:20.460Z,145.17
2023-06-29T04:26:20.452Z,147.73
2023-06-29T04:27:20.474Z,147.57
2023-06-29T04:28:20.463Z,146.64
2023-06-29T04:29:20.469Z,148.52
2023-06-29T04:30:20.470Z,149.24
2023-06-29T04:31:20.511Z,148.53
2023-06-29T04:32:20.447Z,148.98
2023-06-29T04:33:20.523Z,150.28
2023-06-29T04:34:20.456Z,151.81
2023-06-29T04:35:20.472Z,151.46
2023-06-29T04:36:20.461Z,149.36
2023-06-29T04:37:20.452Z,152.60
2023-06-29T04:38:20.449Z,148.63
2023-06-29T04:39:20.429Z,150.98
2023-06-29T04:40:20.455Z,151.23
2023-06-29T04:41:20.523Z,149.46
2023-06-29T04:42:20.577Z,147.52
2023-06-29T04:43:20.624Z,143.05
2023-06-29T04:44:20.646Z,141.79
2023-06-29T04:45:20.697Z,133.80
2023-06-29T04:46:20.693Z,135.11
2023-06-29T04:47:20.749Z,132.51
2023-06-29T04:48:20.778Z,134.86
2023-06-29T04:49:20.784Z,132.11
2023-06-29T04:50:20.812Z,128.06
2023-06-29T04:51:20.844Z,133.41
2023-06-29T04:52:20.870Z,136.72
2023-06-29T04:53:20.990Z,143.52
2023-06-29T04:54:21.002Z,145.10
2023-06-29T04:55:21.060Z,150.77
2023-06-29T04:56:21.128Z,151.86
2023-06-29T04:57:21.161Z,153.91
2023-06-29T04:58:21.145Z,155.75
2023-06-29T04:59:21.154Z,155.76
2023-06-29T05:00:21.217Z,158.58
2023-06-29T05:01:21.245Z,160.85
2023-06-29T05:02:21.219Z,160.79
2023-06-29T05:03:21.349Z,162.97
2023-06-29T05:04:21.291Z,162.32
2023-06-29T05:05:21.316Z,167.27
2023-06-29T05:06:21.340Z,165.19
2023-06-29T05:07:21.431Z,169.51
2023-06-29T05:08:21.440Z,170.10
2023-06-29T05:09:21.482Z,172.68
2023-06-29T05:10:21.517Z,172.77
2023-06-29T05:11:21.581Z,172.13
2023-06-29T05:12:21.604Z,175.72
2023-06-29T05:13:21.657Z,174.43
2023-06-29T05:14:21.717Z,178.72
2023-06-29T05:15:21.744Z,180.08
2023-06-29T05:16:21.816Z,180.45
2023-06-29T05:17:21.878Z,182.50
2023-06-29T05:18:21.880Z,186.64
2023-06-29T05:19:21.909Z,186.32
2023-06-29T05:20:21.961Z,188.52
2023-06-29T05:21:21.991Z,190.51
2023-06-29T05:22:22.084Z,192.25
2023-06-29T05:23:22.109Z,193.36
2023-06-29T05:24:22.141Z,192.87
2023-06-29T05:25:22.172Z,193.39
2023-06-29T05:26:22.236Z,197.02
2023-06-29T05:27:22.273Z,193.79
2023-06-29T05:28:22.828Z,193.84
2023-06-29T05:29:22.380Z,191.89
2023-06-29T05:30:22.541Z,198.96
2023-06-29T05:31:22.579Z,197.75
2023-06-29T05:32:22.498Z,200.54
2023-06-29T05:33:23.231Z,202.75
2023-06-29T05:34:22.539Z,201.82
2023-06-29T05:35:22.566Z,208.00
2023-06-29T05:36:22.575Z,211.49
2023-06-29T05:37:22.573Z,215.08
2023-06-29T05:38:22.807Z,226.48
2023-06-29T05:39:22.578Z,235.04
2023-06-29T05:40:22.595Z,243.19
2023-06-29T05:41:22.600Z,242.61
2023-06-29T05:42:22.644Z,243.90
2023-06-29T05:43:22.637Z,247.62
2023-06-29T05:44:22.669Z,250.00
2023-06-29T05:45:22.646Z,251.39
2023-06-29T05:46:22.911Z,250.46
2023-06-29T05:47:22.771Z,248.43
2023-06-29T05:48:22.758Z,250.00
2023-06-29T05:49:22.706Z,250.25
2023-06-29T05:50:22.708Z,249.92
2023-06-29T05:51:22.702Z,249.36
2023-06-29T05:52:22.715Z,249.30
2023-06-29T05:53:22.734Z,250.00
2023-06-29T05:54:22.758Z,249.47
2023-06-29T05:55:22.778Z,247.96
2023-06-29T05:56:22.763Z,248.72
2023-06-29T05:57:22.734Z,250.31
2023-06-29T05:58:22.727Z,248.32
2023-06-29T05:59:22.705Z,246.10
2023-06-29T06:00:22.717Z,249.70
2023-06-29T06:01:22.760Z,248.72
2023-06-29T06:02:22.705Z,250.00
2023-06-29T06:03:22.737Z,250.00
2023-06-29T06:04:22.710Z,250.00
2023-06-29T06:05:22.709Z,247.99
2023-06-29T06:06:22.697Z,249.84
2023-06-29T06:07:22.737Z,249.83
2023-06-29T06:08:22.682Z,250.00
2023-06-29T06:09:22.734Z,249.55
2023-06-29T06:10:22.730Z,248.97
2023-06-29T06:11:22.799Z,250.00
2023-06-29T06:12:22.844Z,248.40
2023-06-29T06:13:22.865Z,247.12
2023-06-29T06:14:22.965Z,245.79
2023-06-29T06:15:22.995Z,247.48
2023-06-29T06:16:23.071Z,248.05
2023-06-29T06:17:23.087Z,249.20
2023-06-29T06:18:23.141Z,247.88
2023-06-29T06:19:23.217Z,248.12
2023-06-29T06:20:23.240Z,248.76
2023-06-29T06:21:23.303Z,250.00
2023-06-29T06:22:23.468Z,237.16
2023-06-29T06:23:23.438Z,243.65
2023-06-29T06:24:23.498Z,250.00
2023-06-29T06:25:23.559Z,248.74
2023-06-29T06:26:23.600Z,250.00
2023-06-29T06:27:23.696Z,243.62
2023-06-29T06:28:23.686Z,245.59
2023-06-29T06:29:23.696Z,241.84
2023-06-29T06:30:23.716Z,241.91
2023-06-29T06:31:33.582Z,239.81
2023-06-29T06:32:24.780Z,240.03
2023-06-29T06:33:23.817Z,241.06
2023-06-29T06:34:23.741Z,243.73
2023-06-29T06:35:23.727Z,246.10
2023-06-29T06:36:23.708Z,245.64
2023-06-29T06:37:23.729Z,247.86
2023-06-29T06:38:25.821Z,250.00
2023-06-29T06:39:24.703Z,250.20
2023-06-29T06:40:23.684Z,250.24
2023-06-29T06:41:23.750Z,250.54
2023-06-29T06:42:23.684Z,253.76
2023-06-29T06:43:24.301Z,255.13
2023-06-29T06:44:23.651Z,247.85
2023-06-29T06:45:23.658Z,245.48
2023-06-29T06:46:23.748Z,244.03
2023-06-29T06:47:23.731Z,235.74
2023-06-29T06:48:23.787Z,235.90
2023-06-29T06:49:23.819Z,231.43
2023-06-29T06:50:23.869Z,222.55
2023-06-29T06:51:23.875Z,218.91
2023-06-29T06:52:23.961Z,213.56
2023-06-29T06:53:24.297Z,209.81
2023-06-29T06:54:23.990Z,208.24
2023-06-29T06:55:24.031Z,203.41
2023-06-29T06:56:24.087Z,200.90
2023-06-29T06:57:24.082Z,197.55
2023-06-29T06:58:24.081Z,195.19
2023-06-29T06:59:24.050Z,193.78
2023-06-29T07:00:24.061Z,189.56
2023-06-29T07:01:24.147Z,186.89
2023-06-29T07:02:24.172Z,185.01
2023-06-29T07:03:24.319Z,184.93
2023-06-29T07:04:24.092Z,182.80
2023-06-29T07:05:24.084Z,177.86
2023-06-29T07:06:24.121Z,177.51
2023-06-29T07:07:24.301Z,173.27
2023-06-29T07:08:24.070Z,172.28
2023-06-29T07:09:24.077Z,169.94
2023-06-29T07:10:24.077Z,166.90
2023-06-29T07:11:24.078Z,164.16
2023-06-29T07:12:24.095Z,161.32
2023-06-29T07:13:24.078Z,158.83
2023-06-29T07:14:24.095Z,156.95
2023-06-29T07:15:24.120Z,156.72
2023-06-29T07:16:24.137Z,155.29
2023-06-29T07:17:24.153Z,155.38
2023-06-29T07:18:24.161Z,153.80
2023-06-29T07:21:26.168Z,147.72
2023-06-29T07:24:24.118Z,142.19
2023-06-29T07:25:24.103Z,137.81
2023-06-29T07:26:24.098Z,134.54
2023-06-29T07:27:24.123Z,132.64
2023-06-29T07:28:24.121Z,129.64
2023-06-29T07:29:24.063Z,126.81
2023-06-29T07:30:24.136Z,125.32
2023-06-29T07:31:24.148Z,123.65
2023-06-29T07:32:24.116Z,121.91
2023-06-29T07:33:24.061Z,122.63
2023-06-29T07:34:24.058Z,120.71
2023-06-29T07:35:24.024Z,120.14
2023-06-29T07:36:24.034Z,116.10
2023-06-29T07:37:24.002Z,113.86
2023-06-29T07:38:24.011Z,111.47
2023-06-29T07:39:24.017Z,113.16
2023-06-29T07:40:24.107Z,117.33
2023-06-29T07:41:24.000Z,118.46
2023-06-29T07:42:38.261Z,114.45
2023-06-29T07:43:24.975Z,114.60
2023-06-29T07:44:23.988Z,113.81
2023-06-29T07:45:24.005Z,110.57
2023-06-29T07:46:23.968Z,111.55
2023-06-29T07:47:24.061Z,112.97
2023-06-29T07:48:24.054Z,115.75
2023-06-29T07:49:23.937Z,116.55
2023-06-29T07:50:23.969Z,114.75
2023-06-29T07:51:24.095Z,113.33
2023-06-29T07:52:23.939Z,108.19
2023-06-29T07:53:23.914Z,104.93
2023-06-29T07:54:23.905Z,104.08
2023-06-29T07:55:23.931Z,100.18
2023-06-29T07:56:23.969Z,101.50
2023-06-29T07:59:23.895Z,98.48
2023-06-29T08:00:23.889Z,96.08
2023-06-29T08:01:23.883Z,91.68
2023-06-29T08:02:23.937Z,91.67
2023-06-29T08:03:23.873Z,93.54
2023-06-29T08:07:23.905Z,88.53
2023-06-29T08:08:23.862Z,86.15
2023-06-29T08:09:23.812Z,82.48
2023-06-29T08:10:23.810Z,82.48
2023-06-29T08:11:23.782Z,81.36
2023-06-29T08:12:23.784Z,84.61
2023-06-29T08:13:23.779Z,90.81
2023-06-29T08:14:23.774Z,88.98
2023-06-29T08:15:23.755Z,80.76
2023-06-29T08:16:23.773Z,78.76
2023-06-29T08:17:23.789Z,77.72
2023-06-29T08:18:23.743Z,76.77
2023-06-29T08:19:23.794Z,75.61
2023-06-29T08:20:23.770Z,70.36
2023-06-29T08:21:23.724Z,71.99
2023-06-29T08:22:23.728Z,68.09
2023-06-29T08:23:23.720Z,66.67
2023-06-29T08:24:23.725Z,66.38
2023-06-29T08:25:23.696Z,66.08
2023-06-29T08:26:23.718Z,69.66
2023-06-29T08:27:23.713Z,67.51
2023-06-29T08:28:23.706Z,63.35
2023-06-29T08:29:23.722Z,60.64
2023-06-29T08:30:23.730Z,57.28
2023-06-29T08:31:23.700Z,54.53
2023-06-29T08:32:23.776Z,50.45
2023-06-29T08:33:23.721Z,49.02
2023-06-29T08:34:23.652Z,51.42
2023-06-29T08:35:23.657Z,51.44
2023-06-29T08:36:23.635Z,48.97
2023-06-29T08:37:23.612Z,47.31
2023-06-29T08:38:23.617Z,44.50
2023-06-29T08:39:23.621Z,41.35
2023-06-29T08:40:23.669Z,39.51
2023-06-29T08:41:23.601Z,37.82
2023-06-29T08:42:23.577Z,35.84
2023-06-29T08:43:23.603Z,32.81
2023-06-29T08:44:23.594Z,31.51
2023-06-29T08:45:23.605Z,31.13
2023-06-29T08:46:23.610Z,29.66
2023-06-29T08:47:23.589Z,26.61
2023-06-29T08:48:23.549Z,25.54
2023-06-29T08:49:23.548Z,24.19
2023-06-29T08:50:23.546Z,26.32
2023-06-29T08:51:23.517Z,27.47
2023-06-29T08:52:23.524Z,25.56
2023-06-29T08:53:23.573Z,25.00
2023-06-29T08:54:23.512Z,26.41
2023-06-29T08:55:23.515Z,24.97
2023-06-29T08:56:23.483Z,27.42
2023-06-29T08:57:23.514Z,25.61
2023-06-29T08:58:23.826Z,25.54
2023-06-29T08:59:23.481Z,26.63
2023-06-29T09:00:23.469Z,29.01
2023-06-29T09:01:23.553Z,25.45
2023-06-29T09:02:23.512Z,25.20
2023-06-29T09:03:23.691Z,25.00
2023-06-29T09:04:23.441Z,25.33
2023-06-29T09:05:23.465Z,27.83
2023-06-29T09:06:23.424Z,25.25
2023-06-29T09:07:23.476Z,25.65
2023-06-29T09:08:23.505Z,25.00
2023-06-29T09:09:23.397Z,29.88
2023-06-29T09:10:23.450Z,30.37
2023-06-29T09:11:23.380Z,27.69
2023-06-29T09:12:23.370Z,24.85
2023-06-29T09:13:23.816Z,26.82
2023-06-29T09:14:23.371Z,26.51
2023-06-29T09:15:23.374Z,26.35
2023-06-29T09:16:23.378Z,26.09
2023-06-29T09:17:23.509Z,25.00
2023-06-29T09:18:23.361Z,26.03
2023-06-29T09:19:23.328Z,26.31
2023-06-29T09:20:23.339Z,27.03
2023-06-29T09:21:23.340Z,26.15
2023-06-29T09:22:23.338Z,29.03
2023-06-29T09:23:23.313Z,27.43
2023-06-29T09:24:23.317Z,26.66
2023-06-29T09:25:33.250Z,27.75
2023-06-29T09:26:24.306Z,27.80
2023-06-29T09:27:23.315Z,26.14
2023-06-29T09:28:23.321Z,26.24
2023-06-29T09:29:23.342Z,25.89
2023-06-29T09:30:23.258Z,28.19
2023-06-29T09:31:23.291Z,27.22
2023-06-29T09:32:23.246Z,28.37
2023-06-29T09:33:23.247Z,26.82
2023-06-29T09:34:23.235Z,27.02
2023-06-29T09:35:23.248Z,25.51
2023-06-29T09:36:23.216Z,25.73
2023-06-29T09:37:23.255Z,25.47
2023-06-29T09:38:23.227Z,27.73
2023-06-29T09:39:23.213Z,26.16
2023-06-29T09:40:23.197Z,27.80
2023-06-29T09:41:23.208Z,27.18
2023-06-29T09:42:23.300Z,25.46
2023-06-29T09:43:23.233Z,25.80
2023-06-29T09:44:23.221Z,28.21
2023-06-29T09:45:23.183Z,27.28
2023-06-29T09:46:23.199Z,29.50
2023-06-29T09:49:23.340Z,27.56
2023-06-29T09:50:23.324Z,27.63
2023-06-29T09:51:23.359Z,28.76
2023-06-29T09:52:23.175Z,29.72
2023-06-29T09:53:23.137Z,32.48
2023-06-29T09:54:23.117Z,34.47
2023-06-29T09:55:23.096Z,34.93
2023-06-29T09:56:23.109Z,36.02
2023-06-29T09:57:23.083Z,33.17
2023-06-29T09:58:23.075Z,33.89
2023-06-29T09:59:23.093Z,33.96
2023-06-29T10:00:23.059Z,27.96
2023-06-29T10:01:23.105Z,23.64
2023-06-29T10:02:23.158Z,28.25
2023-06-29T10:03:23.140Z,29.39
2023-06-29T10:04:23.088Z,39.01
2023-06-29T10:05:23.057Z,31.87
2023-06-29T10:06:23.035Z,40.68
2023-06-29T10:07:23.115Z,45.80
2023-06-29T10:08:23.036Z,51.57
2023-06-29T10:09:22.994Z,58.29
2023-06-29T10:10:22.983Z,62.14
2023-06-29T10:11:22.999Z,62.72
2023-06-29T10:12:23.004Z,60.66
2023-06-29T10:13:22.986Z,60.93
2023-06-29T10:14:22.959Z,64.63
2023-06-29T10:15:22.957Z,68.31
2023-06-29T10:16:22.965Z,68.74
2023-06-29T10:17:23.011Z,66.89
2023-06-29T10:18:22.944Z,67.21
2023-06-29T10:19:22.922Z,67.45
2023-06-29T10:20:22.937Z,67.26
2023-06-29T10:21:22.908Z,64.99
2023-06-29T10:22:22.901Z,63.94
2023-06-29T10:23:24.150Z,63.95
2023-06-29T10:24:22.909Z,62.90
2023-06-29T10:25:22.891Z,62.08
2023-06-29T10:26:22.903Z,58.14
2023-06-29T10:27:22.882Z,56.14
2023-06-29T10:28:23.342Z,57.24
2023-06-29T10:29:24.270Z,57.27
2023-06-29T10:30:22.870Z,57.27
2023-06-29T10:31:23.031Z,56.44
2023-06-29T10:32:22.830Z,56.70
2023-06-29T10:33:22.844Z,58.02
2023-06-29T10:34:22.842Z,58.46
2023-06-29T10:35:24.027Z,55.76
2023-06-29T10:36:22.906Z,55.78
2023-06-29T10:37:22.808Z,54.00
2023-06-29T10:38:22.830Z,54.17
2023-06-29T10:39:22.804Z,53.84
2023-06-29T10:40:22.793Z,53.50
2023-06-29T10:41:22.780Z,55.54
2023-06-29T10:42:22.816Z,56.45
2023-06-29T10:43:22.775Z,55.71
2023-06-29T10:44:22.781Z,53.20
2023-06-29T10:45:22.753Z,53.53
2023-06-29T10:46:22.777Z,52.57
2023-06-29T10:47:22.764Z,51.51
2023-06-29T10:48:42.873Z,49.04
2023-06-29T10:49:23.741Z,49.13
2023-06-29T10:50:22.723Z,49.73
2023-06-29T10:51:22.708Z,50.42
2023-06-29T10:52:22.696Z,50.47
2023-06-29T10:53:22.702Z,53.00
2023-06-29T10:54:22.759Z,55.52
2023-06-29T10:55:22.676Z,55.03
2023-06-29T10:56:22.683Z,55.42
2023-06-29T10:57:22.668Z,56.64
2023-06-29T10:58:22.662Z,57.08
2023-06-29T10:59:22.665Z,53.70
2023-06-29T11:00:22.642Z,57.69
2023-06-29T11:01:22.681Z,54.14
2023-06-29T11:02:22.732Z,58.86
2023-06-29T11:03:22.648Z,61.02
2023-06-29T11:04:22.722Z,57.73
2023-06-29T11:05:22.642Z,58.08
2023-06-29T11:06:33.534Z,58.62
2023-06-29T11:07:23.654Z,58.74
2023-06-29T11:08:22.578Z,58.79
2023-06-29T11:09:22.590Z,59.08
2023-06-29T11:10:22.577Z,62.93
2023-06-29T11:11:22.571Z,64.68
2023-06-29T11:12:22.567Z,61.27
2023-06-29T11:13:22.565Z,59.08
2023-06-29T11:14:22.566Z,56.11
2023-06-29T11:15:22.559Z,54.88
2023-06-29T11:16:22.604Z,50.46
2023-06-29T11:17:22.564Z,47.61
2023-06-29T11:18:22.519Z,39.90
2023-06-29T11:19:22.525Z,33.97
2023-06-29T11:20:22.493Z,27.53
2023-06-29T11:21:22.527Z,27.01
2023-06-29T11:22:22.491Z,34.86
2023-06-29T11:23:22.526Z,33.70
2023-06-29T11:24:22.469Z,25.86
2023-06-29T11:25:22.471Z,24.54
2023-06-29T11:26:22.465Z,24.65
2023-06-29T11:27:22.469Z,25.42
2023-06-29T11:28:22.515Z,32.02
2023-06-29T11:29:22.611Z,33.75
2023-06-29T11:30:22.464Z,39.90
2023-06-29T11:31:22.473Z,41.78
2023-06-29T11:32:22.485Z,44.37
2023-06-29T11:34:23.400Z,38.60
2023-06-29T11:35:22.437Z,18.07
2023-06-29T11:36:22.511Z,19.48
2023-06-29T11:37:23.984Z,15.55
2023-06-29T11:38:22.446Z,26.92
2023-06-29T11:39:22.364Z,37.49
2023-06-29T11:40:22.383Z,43.19
2023-06-29T11:41:22.370Z,50.39
2023-06-29T11:42:22.414Z,55.64
2023-06-29T11:44:22.347Z,44.30
2023-06-29T11:45:22.328Z,48.23
2023-06-29T11:46:22.366Z,57.58
2023-06-29T11:48:22.356Z,45.12
2023-06-29T11:49:23.063Z,35.71
2023-06-29T11:50:22.329Z,24.61
2023-06-29T11:51:22.284Z,20.31
2023-06-29T11:52:22.312Z,25.48
2023-06-29T11:53:22.305Z,32.47
2023-06-29T11:54:22.290Z,42.42
2023-06-29T11:55:24.044Z,46.71
2023-06-29T11:56:22.250Z,49.88
2023-06-29T11:57:22.269Z,54.49
2023-06-29T11:58:22.253Z,50.47
2023-06-29T11:59:22.256Z,48.10
2023-06-29T12:00:22.278Z,45.81
2023-06-29T12:01:22.827Z,46.03
2023-06-29T12:02:22.286Z,55.56
2023-06-29T12:03:22.299Z,47.82
2023-06-29T12:04:22.338Z,21.73
2023-06-29T12:05:22.212Z,24.77
2023-06-29T12:06:22.192Z,25.10
2023-06-29T12:07:22.293Z,26.05
2023-06-29T12:08:22.541Z,26.30
2023-06-29T12:09:22.348Z,29.85
2023-06-29T12:10:22.178Z,36.64
2023-06-29T12:11:23.044Z,37.17
2023-06-29T12:12:22.210Z,44.90
2023-06-29T12:13:22.170Z,51.16
2023-06-29T12:14:22.345Z,52.58
2023-06-29T12:15:22.164Z,54.57
2023-06-29T12:18:22.310Z,45.15
2023-06-29T12:19:22.890Z,40.84
2023-06-29T12:20:22.227Z,28.96
2023-06-29T12:21:22.488Z,30.47
2023-06-29T12:22:22.086Z,26.66
2023-06-29T12:23:22.079Z,20.89
2023-06-29T12:24:22.106Z,24.92
2023-06-29T12:25:22.058Z,25.00
2023-06-29T12:26:22.070Z,25.00
2023-06-29T12:27:22.074Z,25.31
2023-06-29T12:28:22.041Z,26.84
2023-06-29T12:29:22.059Z,25.49
2023-06-29T12:30:22.293Z,27.98
2023-06-29T12:31:22.044Z,29.29
2023-06-29T12:32:22.013Z,26.33
2023-06-29T12:33:21.996Z,25.35
2023-06-29T12:34:22.022Z,26.25
2023-06-29T12:35:22.001Z,25.18
2023-06-29T12:36:22.013Z,26.80
2023-06-29T12:37:21.973Z,26.55
2023-06-29T12:38:21.998Z,28.19
2023-06-29T12:39:21.968Z,25.75
2023-06-29T12:40:21.967Z,24.59
2023-06-29T12:41:21.975Z,25.27
2023-06-29T12:42:21.967Z,28.94
2023-06-29T12:43:21.943Z,30.23
2023-06-29T12:44:21.925Z,37.53
2023-06-29T12:45:21.941Z,39.87
2023-06-29T12:46:21.922Z,42.23
2023-06-29T12:47:21.940Z,40.95
2023-06-29T12:48:21.955Z,40.45
2023-06-29T12:49:21.892Z,39.71
2023-06-29T12:50:21.896Z,37.58
2023-06-29T12:51:21.877Z,38.27
2023-06-29T12:52:21.870Z,37.18
2023-06-29T12:53:21.864Z,38.53